createdAt,value
2018-06-09T00:01:53.662Z,20.20
2018-06-09T00:04:21.360Z,20.20
2018-06-09T00:06:51.415Z,20.20
2018-06-09T00:09:19.056Z,20.20
2018-06-09T00:11:46.633Z,20.10
2018-06-09T00:14:14.271Z,20.10
2018-06-09T00:16:41.872Z,20.20
2018-06-09T00:19:09.429Z,20.10
2018-06-09T00:21:37.033Z,20.00
2018-06-09T00:24:04.666Z,20.10
2018-06-09T00:26:32.335Z,20.10
2018-06-09T00:28:59.965Z,20.10
2018-06-09T00:31:27.673Z,20.00
2018-06-09T00:33:55.271Z,20.00
2018-06-09T00:36:25.926Z,20.00
2018-06-09T00:38:53.533Z,20.00
2018-06-09T00:41:21.143Z,20.00
2018-06-09T00:43:48.764Z,20.00
2018-06-09T00:46:16.365Z,20.00
2018-06-09T00:48:44.059Z,19.90
2018-06-09T00:53:39.366Z,19.90
2018-06-09T00:56:18.334Z,19.90
2018-06-09T00:58:46.136Z,19.80
2018-06-09T01:01:13.716Z,19.80
2018-06-09T01:03:41.364Z,19.80
2018-06-09T01:06:09.043Z,19.80
2018-06-09T01:08:36.718Z,19.70
2018-06-09T01:11:04.350Z,19.70
2018-06-09T01:13:32.028Z,19.60
2018-06-09T01:16:00.313Z,19.50
2018-06-09T01:18:29.065Z,19.50
2018-06-09T01:20:56.683Z,19.40
2018-06-09T01:23:24.302Z,19.40
2018-06-09T01:25:51.920Z,19.30
2018-06-09T01:28:19.505Z,19.30
2018-06-09T01:30:47.388Z,19.30
2018-06-09T01:33:14.991Z,19.20
2018-06-09T01:35:42.594Z,19.20
2018-06-09T01:38:10.295Z,19.20
2018-06-09T01:40:37.898Z,19.20
2018-06-09T01:43:08.772Z,19.10
2018-06-09T01:45:36.336Z,19.10
2018-06-09T01:48:03.924Z,19.10
2018-06-09T01:50:31.488Z,19.20
2018-06-09T01:52:59.187Z,19.20
2018-06-09T01:55:33.653Z,19.20
2018-06-09T01:58:01.298Z,19.10
2018-06-09T02:00:28.971Z,19.00
2018-06-09T02:02:56.605Z,19.10
2018-06-09T02:05:24.345Z,19.00
2018-06-09T02:07:51.992Z,19.00
2018-06-09T02:10:19.588Z,19.00
2018-06-09T02:12:47.188Z,18.90
2018-06-09T02:15:14.823Z,18.90
2018-06-09T02:17:42.436Z,18.90
2018-06-09T02:20:09.999Z,18.90
2018-06-09T02:22:37.593Z,18.80
2018-06-09T02:25:05.341Z,18.80
2018-06-09T02:27:33.099Z,18.70
2018-06-09T02:30:01.357Z,18.70
2018-06-09T02:32:28.964Z,18.60
2018-06-09T02:34:56.540Z,18.60
2018-06-09T02:37:24.137Z,18.60
2018-06-09T02:39:51.909Z,18.50
2018-06-09T02:42:19.527Z,18.50
2018-06-09T02:44:47.256Z,18.50
2018-06-09T02:47:14.905Z,18.40
2018-06-09T02:49:42.582Z,18.30
2018-06-09T02:52:10.194Z,18.30
2018-06-09T02:54:37.905Z,18.30
2018-06-09T02:57:05.495Z,18.30
2018-06-09T02:59:33.236Z,18.20
2018-06-09T03:02:00.843Z,18.20
2018-06-09T03:04:28.421Z,18.10
2018-06-09T03:06:56.213Z,18.10
2018-06-09T03:09:23.889Z,18.10
2018-06-09T03:11:52.907Z,18.00
2018-06-09T03:14:20.533Z,18.00
2018-06-09T03:16:48.125Z,18.00
2018-06-09T03:19:15.750Z,18.00
2018-06-09T03:21:43.823Z,17.90
2018-06-09T03:24:11.441Z,18.00
2018-06-09T03:26:39.033Z,17.90
2018-06-09T03:29:06.612Z,18.00
2018-06-09T03:31:34.243Z,17.90
2018-06-09T03:34:01.857Z,17.90
2018-06-09T03:36:29.496Z,17.90
2018-06-09T03:38:57.205Z,18.00
2018-06-09T03:41:24.795Z,17.90
2018-06-09T03:43:52.504Z,17.90
2018-06-09T03:46:20.080Z,17.90
2018-06-09T03:48:47.705Z,18.00
2018-06-09T03:51:15.252Z,18.00
2018-06-09T03:56:10.292Z,18.00
2018-06-09T03:58:37.916Z,18.00
2018-06-09T04:01:05.614Z,18.00
2018-06-09T04:03:33.650Z,18.00
2018-06-09T04:06:01.373Z,18.10
2018-06-09T04:08:29.002Z,18.10
2018-06-09T04:10:56.595Z,18.10
2018-06-09T04:13:24.212Z,18.20
2018-06-09T04:15:51.790Z,18.20
2018-06-09T04:18:19.406Z,18.30
2018-06-09T04:20:47.024Z,18.30
2018-06-09T04:23:14.626Z,18.30
2018-06-09T04:25:42.219Z,18.40
2018-06-09T04:28:09.820Z,18.40
2018-06-09T04:30:37.450Z,18.50
2018-06-09T04:33:05.133Z,18.50
2018-06-09T04:35:33.842Z,18.40
2018-06-09T04:38:01.562Z,18.50
2018-06-09T04:40:29.109Z,18.60
2018-06-09T04:42:56.725Z,18.60
2018-06-09T04:45:24.339Z,18.60
2018-06-09T04:47:51.955Z,18.60
2018-06-09T04:50:19.558Z,18.60
2018-06-09T04:52:47.505Z,18.60
2018-06-09T04:55:15.144Z,18.70
2018-06-09T04:57:42.876Z,18.80
2018-06-09T05:00:10.621Z,18.90
2018-06-09T05:02:38.285Z,18.90
2018-06-09T05:05:05.983Z,19.00
2018-06-09T05:07:33.601Z,19.20
2018-06-09T05:10:01.187Z,19.50
2018-06-09T05:12:28.801Z,19.60
2018-06-09T05:14:56.413Z,19.60
2018-06-09T05:17:24.048Z,19.70
2018-06-09T05:19:51.697Z,19.70
2018-06-09T05:22:19.278Z,19.90
2018-06-09T05:24:46.971Z,20.00
2018-06-09T05:27:14.665Z,20.10
2018-06-09T05:29:42.264Z,20.30
2018-06-09T05:32:10.330Z,20.20
2018-06-09T05:34:38.561Z,20.00
2018-06-09T05:37:06.712Z,19.90
2018-06-09T05:39:34.466Z,20.00
2018-06-09T05:42:02.040Z,20.10
2018-06-09T05:44:29.721Z,20.20
2018-06-09T05:46:57.331Z,20.20
2018-06-09T05:49:24.973Z,20.30
2018-06-09T05:51:52.721Z,20.40
2018-06-09T05:54:20.612Z,20.40
2018-06-09T05:56:48.370Z,20.30
2018-06-09T05:59:16.010Z,20.40
2018-06-09T06:01:43.715Z,20.40
2018-06-09T06:04:11.433Z,20.50
2018-06-09T06:06:39.071Z,20.70
2018-06-09T06:09:07.570Z,21.00
2018-06-09T06:11:35.212Z,21.10
2018-06-09T06:14:03.145Z,21.20
2018-06-09T06:16:30.778Z,21.40
2018-06-09T06:18:59.552Z,21.60
2018-06-09T06:21:28.365Z,21.80
2018-06-09T06:23:58.759Z,21.90
2018-06-09T06:26:26.524Z,22.10
2018-06-09T06:28:54.257Z,22.10
2018-06-09T06:31:22.079Z,22.10
2018-06-09T06:33:49.696Z,22.20
2018-06-09T06:36:17.292Z,22.50
2018-06-09T06:38:44.892Z,22.60
2018-06-09T06:41:12.500Z,22.60
2018-06-09T06:43:40.072Z,22.60
2018-06-09T06:46:07.662Z,22.70
2018-06-09T06:48:35.236Z,22.90
2018-06-09T06:51:02.907Z,23.00
2018-06-09T06:53:30.905Z,23.10
2018-06-09T06:55:58.609Z,22.80
2018-06-09T06:58:26.432Z,22.70
2018-06-09T07:00:58.360Z,22.60
2018-06-09T07:03:26.049Z,22.50
2018-06-09T07:05:53.668Z,22.50
2018-06-09T07:10:49.692Z,22.60
2018-06-09T07:13:17.313Z,22.80
2018-06-09T07:15:44.890Z,23.10
2018-06-09T07:18:12.591Z,23.50
2018-06-09T07:20:40.953Z,23.80
2018-06-09T07:23:08.858Z,24.10
2018-06-09T07:25:36.665Z,24.00
2018-06-09T07:28:04.388Z,23.90
2018-06-09T07:30:32.032Z,24.20
2018-06-09T07:33:01.529Z,24.10
2018-06-09T07:35:29.150Z,24.30
2018-06-09T07:37:56.700Z,24.40
2018-06-09T07:40:24.292Z,24.70
2018-06-09T07:42:51.963Z,24.50
2018-06-09T07:45:20.611Z,24.40
2018-06-09T07:47:48.294Z,24.60
2018-06-09T07:50:15.988Z,25.80
2018-06-09T07:52:43.579Z,25.70
2018-06-09T07:55:11.264Z,25.50
2018-06-09T07:57:39.779Z,25.50
2018-06-09T08:00:11.188Z,25.90
2018-06-09T08:02:38.962Z,25.70
2018-06-09T08:05:15.320Z,25.70
2018-06-09T08:07:49.880Z,25.20
2018-06-09T08:10:17.641Z,25.10
2018-06-09T08:12:45.308Z,25.30
2018-06-09T08:15:12.971Z,25.80
2018-06-09T08:17:41.349Z,25.70
2018-06-09T08:20:08.978Z,25.80
2018-06-09T08:22:37.772Z,27.10
2018-06-09T08:25:05.407Z,28.50
2018-06-09T08:27:32.963Z,29.00
2018-06-09T08:30:00.596Z,28.90
2018-06-09T08:32:28.370Z,28.90
2018-06-09T08:34:55.985Z,28.80
2018-06-09T08:37:23.679Z,28.10
2018-06-09T08:39:53.482Z,27.40
2018-06-09T08:42:21.259Z,26.70
2018-06-09T08:44:49.009Z,26.50
2018-06-09T08:47:16.630Z,26.80
2018-06-09T08:49:44.264Z,26.80
2018-06-09T08:52:12.707Z,26.60
2018-06-09T08:54:40.457Z,26.70
2018-06-09T08:57:08.016Z,26.70
2018-06-09T08:59:35.704Z,27.00
2018-06-09T09:02:03.351Z,27.10
2018-06-09T09:04:31.021Z,26.90
2018-06-09T09:06:58.725Z,27.30
2018-06-09T09:09:26.491Z,27.50
2018-06-09T09:11:54.126Z,27.30
2018-06-09T09:14:21.928Z,27.10
2018-06-09T09:16:49.655Z,27.30
2018-06-09T09:19:17.473Z,27.40
2018-06-09T09:21:45.063Z,27.20
2018-06-09T09:24:12.692Z,27.20
2018-06-09T09:29:07.828Z,27.30
2018-06-09T09:31:35.674Z,27.60
2018-06-09T09:34:03.336Z,27.40
2018-06-09T09:39:01.680Z,28.50
2018-06-09T09:41:29.423Z,29.20
2018-06-09T09:43:57.247Z,29.60
2018-06-09T09:46:24.985Z,29.20
2018-06-09T09:48:52.502Z,28.80
2018-06-09T09:51:20.240Z,28.60
2018-06-09T09:53:47.809Z,28.70
2018-06-09T09:56:15.606Z,28.70
2018-06-09T09:58:43.189Z,28.60
2018-06-09T10:01:10.795Z,28.60
2018-06-09T10:03:38.470Z,28.50
2018-06-09T10:06:06.083Z,28.60
2018-06-09T10:08:34.079Z,28.40
2018-06-09T10:11:01.876Z,28.40
2018-06-09T10:13:29.859Z,28.30
2018-06-09T10:15:57.498Z,28.80
2018-06-09T10:18:25.152Z,29.40
2018-06-09T10:20:52.880Z,29.90
2018-06-09T10:23:20.564Z,30.50
2018-06-09T10:25:48.222Z,30.90
2018-06-09T10:28:16.053Z,31.10
2018-06-09T10:30:43.617Z,30.30
2018-06-09T10:33:11.288Z,30.00
2018-06-09T10:38:06.416Z,30.50
2018-06-09T10:40:34.228Z,30.00
2018-06-09T10:43:01.979Z,29.80
2018-06-09T10:45:29.589Z,29.60
2018-06-09T10:47:57.191Z,29.50
2018-06-09T10:50:24.809Z,29.10
2018-06-09T10:52:52.376Z,29.00
2018-06-09T10:55:19.981Z,29.10
2018-06-09T10:57:47.567Z,28.60
2018-06-09T11:00:15.297Z,28.50
2018-06-09T11:02:42.856Z,29.30
2018-06-09T11:05:10.470Z,29.60
2018-06-09T11:07:38.243Z,29.80
2018-06-09T11:10:05.911Z,29.80
2018-06-09T11:12:33.671Z,29.50
2018-06-09T11:15:01.287Z,29.00
2018-06-09T11:17:28.871Z,28.80
2018-06-09T11:19:56.483Z,28.90
2018-06-09T11:22:24.214Z,28.90
2018-06-09T11:24:51.985Z,29.10
2018-06-09T11:27:19.726Z,29.30
2018-06-09T11:29:49.998Z,29.70
2018-06-09T11:32:17.584Z,29.20
2018-06-09T11:34:45.892Z,29.10
2018-06-09T11:37:20.664Z,28.70
2018-06-09T11:39:51.209Z,28.90
2018-06-09T11:42:22.858Z,28.80
2018-06-09T11:44:52.442Z,28.60
2018-06-09T11:47:20.053Z,28.80
2018-06-09T11:49:47.779Z,28.60
2018-06-09T11:52:15.378Z,29.00
2018-06-09T11:54:43.789Z,28.80
2018-06-09T11:57:11.345Z,28.90
2018-06-09T11:59:39.021Z,28.50
2018-06-09T12:02:06.580Z,28.40
2018-06-09T12:04:34.668Z,28.80
2018-06-09T12:07:02.318Z,28.60
2018-06-09T12:09:30.104Z,28.90
2018-06-09T12:14:25.267Z,29.10
2018-06-09T12:16:53.009Z,29.00
2018-06-09T12:19:20.624Z,28.80
2018-06-09T12:21:49.324Z,28.80
2018-06-09T12:24:16.978Z,29.00
2018-06-09T12:26:44.799Z,29.00
2018-06-09T12:29:12.407Z,28.80
2018-06-09T12:31:40.882Z,29.20
2018-06-09T12:36:36.085Z,29.40
2018-06-09T12:39:06.739Z,29.60
2018-06-09T12:41:34.477Z,29.60
2018-06-09T12:44:05.491Z,29.50
2018-06-09T12:46:33.088Z,29.30
2018-06-09T12:49:00.747Z,29.30
2018-06-09T12:51:28.701Z,29.30
2018-06-09T12:53:56.662Z,29.40
2018-06-09T12:56:24.695Z,29.30
2018-06-09T12:58:52.515Z,28.90
2018-06-09T13:01:21.155Z,28.90
2018-06-09T13:03:49.320Z,29.10
2018-06-09T13:06:16.982Z,29.20
2018-06-09T13:08:44.705Z,29.50
2018-06-09T13:11:12.369Z,29.50
2018-06-09T13:13:40.049Z,29.30
2018-06-09T13:16:07.915Z,29.30
2018-06-09T13:18:35.585Z,29.20
2018-06-09T13:21:03.185Z,29.20
2018-06-09T13:23:30.950Z,29.30
2018-06-09T13:25:58.617Z,29.20
2018-06-09T13:28:26.407Z,29.10
2018-06-09T13:30:54.030Z,29.00
2018-06-09T13:33:21.580Z,29.00
2018-06-09T13:35:49.424Z,29.30
2018-06-09T13:38:17.020Z,29.30
2018-06-09T13:40:44.648Z,29.30
2018-06-09T13:43:12.231Z,29.30
2018-06-09T13:45:39.872Z,29.40
2018-06-09T13:48:08.299Z,29.20
2018-06-09T13:50:36.011Z,29.20
2018-06-09T13:53:03.695Z,29.20
2018-06-09T13:55:31.303Z,29.20
2018-06-09T13:57:58.964Z,29.30
2018-06-09T14:00:26.634Z,29.00
2018-06-09T14:02:54.267Z,28.80
2018-06-09T14:05:21.868Z,28.90
2018-06-09T14:07:50.075Z,28.80
2018-06-09T14:10:17.884Z,28.50
2018-06-09T14:15:13.420Z,28.90
2018-06-09T14:17:41.088Z,29.00
2018-06-09T14:20:08.716Z,28.80
2018-06-09T14:22:37.415Z,28.80
2018-06-09T14:25:05.830Z,28.90
2018-06-09T14:27:33.616Z,28.80
2018-06-09T14:30:01.601Z,28.80
2018-06-09T14:32:29.406Z,28.80
2018-06-09T14:34:57.440Z,28.80
2018-06-09T14:37:25.112Z,28.70
2018-06-09T14:39:52.871Z,28.70
2018-06-09T14:42:20.538Z,28.70
2018-06-09T14:44:48.214Z,28.50
2018-06-09T14:47:16.030Z,28.40
2018-06-09T14:49:43.969Z,28.40
2018-06-09T14:52:13.038Z,28.60
2018-06-09T14:54:40.680Z,28.50
2018-06-09T14:57:08.268Z,28.40
2018-06-09T14:59:35.890Z,28.20
2018-06-09T15:02:03.572Z,28.40
2018-06-09T15:04:31.299Z,28.60
2018-06-09T15:06:59.002Z,28.40
2018-06-09T15:09:26.820Z,28.40
2018-06-09T15:11:54.398Z,28.50
2018-06-09T15:14:21.934Z,28.50
2018-06-09T15:16:50.025Z,28.60
2018-06-09T15:19:18.022Z,28.50
2018-06-09T15:21:45.968Z,28.40
2018-06-09T15:26:41.113Z,28.40
2018-06-09T15:29:09.080Z,28.40
2018-06-09T15:31:36.890Z,28.50
2018-06-09T15:34:07.771Z,28.60
2018-06-09T15:36:35.419Z,28.50
2018-06-09T15:39:08.245Z,28.40
2018-06-09T15:41:35.915Z,28.40
2018-06-09T15:44:05.404Z,28.20
2018-06-09T15:46:34.207Z,28.20
2018-06-09T15:49:01.790Z,28.30
2018-06-09T15:51:29.387Z,28.20
2018-06-09T15:53:57.177Z,28.30
2018-06-09T15:56:24.888Z,28.30
2018-06-09T15:58:52.668Z,28.30
2018-06-09T16:01:20.296Z,28.30
2018-06-09T16:03:47.933Z,28.20
2018-06-09T16:06:15.586Z,28.20
2018-06-09T16:08:43.192Z,28.20
2018-06-09T16:11:10.796Z,28.30
2018-06-09T16:13:38.391Z,28.10
2018-06-09T16:16:06.006Z,28.00
2018-06-09T16:18:33.593Z,28.00
2018-06-09T16:21:01.260Z,28.10
2018-06-09T16:23:29.200Z,27.90
2018-06-09T16:25:56.811Z,28.10
2018-06-09T16:28:24.581Z,28.00
2018-06-09T16:30:52.162Z,28.00
2018-06-09T16:33:19.745Z,27.90
2018-06-09T16:35:47.316Z,27.90
2018-06-09T16:38:14.946Z,28.00
2018-06-09T16:40:42.564Z,27.90
2018-06-09T16:43:10.931Z,27.80
2018-06-09T16:45:38.736Z,27.80
2018-06-09T16:48:06.561Z,27.80
2018-06-09T16:50:34.351Z,27.80
2018-06-09T16:53:02.026Z,27.70
2018-06-09T16:55:30.401Z,27.70
2018-06-09T16:57:58.129Z,27.60
2018-06-09T17:00:25.807Z,27.60
2018-06-09T17:02:53.443Z,27.50
2018-06-09T17:05:21.085Z,27.40
2018-06-09T17:07:48.672Z,27.10
2018-06-09T17:10:16.297Z,27.00
2018-06-09T17:12:43.872Z,26.90
2018-06-09T17:15:11.515Z,26.90
2018-06-09T17:17:39.283Z,26.80
2018-06-09T17:20:06.996Z,26.80
2018-06-09T17:22:34.769Z,26.80
2018-06-09T17:25:02.404Z,26.80
2018-06-09T17:27:30.069Z,26.70
2018-06-09T17:29:57.714Z,26.70
2018-06-09T17:32:25.299Z,26.60
2018-06-09T17:34:52.988Z,26.60
2018-06-09T17:37:20.638Z,26.70
2018-06-09T17:39:48.239Z,26.70
2018-06-09T17:42:15.873Z,26.50
2018-06-09T17:44:43.697Z,26.60
2018-06-09T17:47:11.360Z,26.50
2018-06-09T17:49:38.947Z,26.50
2018-06-09T17:52:06.533Z,26.50
2018-06-09T17:54:34.164Z,26.50
2018-06-09T17:57:01.774Z,26.40
2018-06-09T17:59:29.503Z,26.40
2018-06-09T18:01:57.103Z,26.40
2018-06-09T18:04:24.759Z,26.30
2018-06-09T18:06:52.433Z,26.30
2018-06-09T18:09:20.105Z,26.20
2018-06-09T18:11:48.741Z,26.20
2018-06-09T18:14:16.461Z,26.20
2018-06-09T18:16:45.004Z,26.20
2018-06-09T18:19:12.571Z,26.10
2018-06-09T18:21:40.381Z,26.00
2018-06-09T18:24:10.910Z,26.00
2018-06-09T18:26:38.693Z,26.00
2018-06-09T18:29:08.963Z,26.00
2018-06-09T18:31:36.872Z,25.90
2018-06-09T18:34:04.546Z,25.90
2018-06-09T18:36:32.180Z,25.80
2018-06-09T18:38:59.773Z,25.80
2018-06-09T18:41:27.435Z,25.80
2018-06-09T18:43:55.277Z,25.70
2018-06-09T18:46:23.032Z,25.80
2018-06-09T18:51:18.363Z,25.70
2018-06-09T18:53:45.937Z,25.70
2018-06-09T18:56:13.523Z,25.70
2018-06-09T18:58:41.205Z,25.70
2018-06-09T19:01:08.749Z,25.60
2018-06-09T19:03:36.338Z,25.70
2018-06-09T19:06:04.056Z,25.60
2018-06-09T19:08:31.647Z,25.60
2018-06-09T19:10:59.351Z,25.50
2018-06-09T19:13:27.123Z,25.50
2018-06-09T19:15:54.800Z,25.40
2018-06-09T19:18:22.374Z,25.30
2018-06-09T19:20:49.984Z,25.30
2018-06-09T19:23:17.652Z,25.30
2018-06-09T19:25:45.364Z,25.30
2018-06-09T19:28:13.163Z,25.20
2018-06-09T19:30:40.751Z,25.20
2018-06-09T19:33:08.385Z,25.10
2018-06-09T19:35:36.067Z,25.10
2018-06-09T19:38:03.963Z,25.00
2018-06-09T19:40:31.680Z,25.10
2018-06-09T19:43:00.240Z,25.20
2018-06-09T19:45:28.322Z,25.40
2018-06-09T19:47:55.947Z,25.40
2018-06-09T19:50:23.680Z,25.40
2018-06-09T19:52:51.362Z,25.40
2018-06-09T19:55:19.072Z,25.50
2018-06-09T19:57:46.932Z,25.50
2018-06-09T20:00:15.495Z,25.40
2018-06-09T20:02:43.361Z,25.40
2018-06-09T20:07:38.799Z,25.40
2018-06-09T20:10:06.815Z,25.30
2018-06-09T20:12:34.630Z,25.30
2018-06-09T20:15:02.323Z,25.30
2018-06-09T20:17:29.959Z,25.30
2018-06-09T20:19:57.739Z,25.20
2018-06-09T20:22:25.871Z,25.20
2018-06-09T20:24:55.021Z,25.20
2018-06-09T20:27:22.631Z,25.20
2018-06-09T20:29:50.840Z,25.20
2018-06-09T20:32:19.243Z,25.20
2018-06-09T20:34:46.915Z,25.10
2018-06-09T20:37:14.519Z,25.10
2018-06-09T20:39:42.300Z,25.10
2018-06-09T20:42:10.197Z,25.10
2018-06-09T20:44:38.131Z,25.10
2018-06-09T20:47:06.229Z,25.10
2018-06-09T20:49:34.145Z,25.10
2018-06-09T20:52:01.792Z,25.10
2018-06-09T20:54:29.565Z,25.00
2018-06-09T20:56:57.180Z,25.00
2018-06-09T20:59:25.083Z,24.90
2018-06-09T21:04:20.895Z,24.90
2018-06-09T21:06:49.254Z,24.90
2018-06-09T21:09:17.114Z,24.90
2018-06-09T21:11:51.656Z,24.90
2018-06-09T21:14:19.486Z,24.90
2018-06-09T21:16:47.838Z,24.80
2018-06-09T21:19:16.512Z,24.70
2018-06-09T21:21:44.356Z,24.70
2018-06-09T21:24:14.422Z,24.70
2018-06-09T21:26:48.114Z,24.70
2018-06-09T21:29:21.182Z,24.70
2018-06-09T21:31:49.140Z,24.70
2018-06-09T21:34:32.771Z,24.60
2018-06-09T21:37:06.012Z,24.60
2018-06-09T21:39:39.439Z,24.50
2018-06-09T21:42:12.717Z,24.50
2018-06-09T21:44:45.840Z,24.40
2018-06-09T21:47:13.439Z,24.50
2018-06-09T21:49:41.132Z,24.40
2018-06-09T21:52:08.886Z,24.30
2018-06-09T21:54:36.527Z,24.30
2018-06-09T21:57:04.266Z,24.30
2018-06-09T21:59:31.970Z,24.20
2018-06-09T22:02:00.744Z,24.20
2018-06-09T22:04:29.082Z,24.10
2018-06-09T22:06:57.207Z,24.10
2018-06-09T22:09:24.909Z,24.10
2018-06-09T22:11:52.618Z,24.10
2018-06-09T22:14:20.321Z,24.00
2018-06-09T22:16:47.944Z,24.10
2018-06-09T22:19:15.516Z,24.10
2018-06-09T22:21:43.053Z,24.00
2018-06-09T22:24:13.887Z,24.00
2018-06-09T22:26:41.496Z,23.90
2018-06-09T22:29:09.124Z,23.90
2018-06-09T22:31:36.773Z,24.00
2018-06-09T22:34:04.476Z,24.00
2018-06-09T22:36:32.133Z,24.10
2018-06-09T22:39:01.349Z,24.00
2018-06-09T22:41:29.109Z,23.90
2018-06-09T22:43:56.907Z,23.70
2018-06-09T22:46:24.593Z,23.60
2018-06-09T22:48:52.220Z,23.30
2018-06-09T22:51:19.805Z,23.10
2018-06-09T22:53:47.371Z,23.00
2018-06-09T22:56:14.951Z,23.00
2018-06-09T22:58:42.592Z,22.90
2018-06-09T23:01:10.264Z,22.50
2018-06-09T23:03:37.924Z,22.50
2018-06-09T23:06:05.661Z,22.40
2018-06-09T23:08:33.857Z,22.30
2018-06-09T23:11:01.474Z,22.30
2018-06-09T23:13:29.086Z,22.10
2018-06-09T23:15:56.671Z,22.10
2018-06-09T23:18:24.236Z,21.90
2018-06-09T23:20:51.822Z,22.00
2018-06-09T23:23:19.428Z,22.10
2018-06-09T23:25:47.057Z,22.10
2018-06-09T23:28:14.767Z,21.80
2018-06-09T23:30:42.423Z,21.80
2018-06-09T23:33:10.096Z,21.90
2018-06-09T23:35:37.755Z,21.90
2018-06-09T23:38:05.599Z,22.00
2018-06-09T23:40:33.326Z,22.00
2018-06-09T23:43:00.912Z,22.00
2018-06-09T23:45:28.482Z,21.90
2018-06-09T23:47:56.088Z,21.90
2018-06-09T23:50:23.820Z,21.90
2018-06-09T23:52:51.400Z,21.90
2018-06-09T23:55:18.958Z,21.80
2018-06-09T23:57:46.546Z,21.80
